Seattle, WA

7:18 AM PDT on August 27, 2014 (GMT -0700)
APRSWXNET Seattle WA US | Change Station
CLOSE
Current Station
Personal Weather Station
Location: Seattle, WA
Elevation: 377 ft
Nearby Weather Stations

Elev 377 ft 47.55 °N, 122.38 °W | Updated 45 minutes ago

Clear
Clear
61.0 °F
Feels Like 61.0 °F
N
0.0
Wind Variable Wind from WNW
Gusts 0.0 mph

Today
High -- | Low -- °F
--% Chance of Precip.
Yesterday
High -- | Low -- °F
Precip. -- in
6:21 AM 7:59 PM
Waxing Crescent, 4% visible
Pressure 30.03 in
Visibility 10.0 miles
Clouds Clear
Dew Point 57.0 °F
Humidity 88%
Rainfall 0.00 in
Snow Depth Not available.
UV 0 out of 12
Pollen 3.80 out of 12
Air Quality Not available.
Flu Activity Not available.
METAR KBFI 271353Z 00000KT 10SM CLR 19/13 A3003 RMK AO2 SLP167 T01940133

More Conditions Fewer Conditions

Pressure 30.03 in
Visibility 10.0 miles
Clouds Clear
Dew Point 57.0 °F
Humidity 88%
Rainfall 0.00 in
Snow Depth Not available.
UV 0 out of 12
Pollen 3.80 out of 12
Air Quality Not available.
Flu Activity Not available.
METAR KBFI 271353Z 00000KT 10SM CLR 19/13 A3003 RMK AO2 SLP167 T01940133

More Conditions Fewer Conditions

10-Day Weather Forecast

Almanac

Astronomy

Aug. 27, 2014 Rise Set
Actual Time 6:21 AM PDT 7:59 PM PDT
Civil Twilight 5:49 AM PDT 8:31 PM PDT
Nautical Twilight 5:09 AM PDT 9:10 PM PDT
Astronomical Twilight 4:26 AM PDT 9:53 PM PDT
Moon 8:34 AM PDT 8:41 PM PDT
Length of Visible Light 14h 42m
Length of Day
13h 37m
Tomorrow will be 3m 15s shorter.
Waxing Crescent, 4% of the Moon is Illuminated
Today
Waxing Crescent
Sep 2
First Quarter
Sep 8
Full
Sep 15
Last Quarter
Sep 24
New

Today's Extremes

State Highs State Lows

Community

WunderPhotos

Upload Photos

1,747,690 photos uploaded!

Nearby

Air Quality

  Air Quality AQ Index Pollutant
Wednesday Good
OZONE
Wednesday Good
PM2.5
Thursday Good
OZONE
Thursday Good
PM2.5
Friday Good
OZONE
Friday Good
PM2.5
Saturday Good
OZONE
Saturday Good
PM2.5

Snow Depth

Station Depth Elevation
Mount Crag 0 in 4050 ft
Alpine Meadows 0 in 3500 ft
Dungeness 0 in 4100 ft
Burnt Mountain 0 in 4200 ft
Olallie Meadows 2 in 3700 ft

Earthquake Activity

City Distance Mag. Time & Date
No recent earthquake activity has been reported nearby.
Minimum magnitude displayed is 2.5.

Coastal Water Temperatures

Place Temperature
Port Townsend, WA 53.1 °F
Seattle, WA 55.9 °F
Friday Harbor, WA 53.1 °F
Tacoma, WA 55.9 °F

Nearby Weather Stations